• Join FlightAware (Why Join?)
  • Login
  • US Flag 
07:38AM EDT


 

Airport Tracker/Info


-or-


 

Live Flight TrackerFlight Track Log ✈ N800GS ✈ 04-May-2012 ✈ KUNV - KORF

Flight Track Log - Related Links

Times and Time Zones

All times are in EDT time to prevent confusion due to time zone crossing. See the N800GS flight status page for this flight to view local times or setup timezone preferences in your user account.

Time Position Orientation Groundspeed Altitude Reporting Facility
EDT Latitude Longitude Course Direction KTS MPH feet Rate Location/Type
04:35PM 40.8103 -77.8481 154° Southeast 275 316 2,800  Level New York Center
04:36PM 40.7742 -77.8250 167° South 263 303 4,400 1,620 Climbing New York Center
04:37PM 40.7353 -77.8128 164° South 164 189 6,100 1,620 Climbing New York Center
04:38PM 40.6964 -77.7978 148° Southeast 152 175 7,700 1,560 Climbing New York Center
04:39PM 40.6586 -77.7667 153° Southeast 152 175 9,300 1,560 Climbing New York Center
04:40PM 40.6206 -77.7408 149° Southeast 157 181 10,900 1,500 Climbing New York Center
04:41PM 40.5769 -77.7064 150° Southeast 162 186 12,300 1,320 Climbing New York Center
04:42PM 40.5350 -77.6747 151° Southeast 172 198 13,600 1,380 Climbing New York Center
04:43PM 40.4828 -77.6369 146° Southeast 189 217 15,200 1,440 Climbing New York Center
04:44PM 40.4414 -77.6000 155° Southeast 196 226 16,600 1,320 Climbing New York Center
04:45PM 40.3869 -77.5672 149° Southeast 196 226 17,900 1,140 Climbing New York Center
04:46PM 40.3431 -77.5331 145° Southeast 196 226 18,900 1,200 Climbing New York Center
04:47PM 40.2894 -77.4842 153° Southeast 201 231 20,300 1,260 Climbing New York Center
04:48PM 40.2372 -77.4494 149° Southeast 208 239 21,500 1,200 Climbing New York Center
04:49PM 40.1853 -77.4089 149° Southeast 213 245 22,700 1,140 Climbing New York Center
04:50PM 40.1333 -77.3686 155° Southeast 213 245 23,800 960 Climbing New York Center
04:51PM 40.0869 -77.3400 152° Southeast 213 245 24,700 540 Climbing New York Center
04:52PM 40.0286 -77.2992 151° Southeast 218 251 25,000 120 Climbing New York Center
04:53PM 39.9625 -77.2522 149° Southeast 246 283 25,000  Level New York Center
04:54PM 39.8967 -77.2003 150° Southeast 268 308 25,000  Level New York Center
04:55PM 39.8244 -77.1450 150° Southeast 282 325 25,000  Level New York Center
04:56PM 39.7481 -77.0867 151° Southeast 286 329 25,000 -60 Level Washington Center
04:57PM 39.6800 -77.0367 153° Southeast 299 344 24,900 -420 Descending Washington Center
04:58PM 39.6056 -76.9867 149° Southeast 299 344 24,200 -660 Descending Washington Center
04:59PM 39.5311 -76.9289 150° Southeast 304 350 23,600 -600 Descending Washington Center
05:00PM 39.4547 -76.8708 152° Southeast 304 350 23,000 -300 Descending Washington Center
05:01PM 39.3803 -76.8186 159° South 309 356 23,000 -300 Level Washington Center
05:02PM 39.3036 -76.7797 178° South 303 349 22,500 -720 Descending Washington Center
05:03PM 39.2181 -76.7758 179° South 298 343 21,600 -900 Descending Washington Center
05:04PM 39.1306 -76.7742 177° South 311 358 20,700 -840 Descending Washington Center
05:05PM 39.0453 -76.7675 178° South 311 358 20,000 -360 Descending Washington Center
05:06PM 38.9639 -76.7636 176° South 306 352 20,000  Level Washington Center
05:07PM 38.8828 -76.7569 176° South 301 346 20,000  Level Washington Center
05:08PM 38.8036 -76.7503 179° South 289 333 20,000  Level Washington Center
05:09PM 38.7347 -76.7494 174° South 289 333 20,000  Level Washington Center
05:10PM 38.6411 -76.7372 175° South 289 333 20,000 -300 Level Washington Center
05:11PM 38.5639 -76.7281 175° South 289 333 19,400 -720 Descending Washington Center
05:12PM 38.4808 -76.7189 174° South 289 333 18,600 -900 Descending Washington Center
05:13PM 38.3975 -76.7069 172° South 295 339 17,700 -960 Descending Washington Center
05:14PM 38.3119 -76.6925 174° South 300 345 16,800 -960 Descending Washington Center
05:15PM 38.2286 -76.6808 172° South 305 351 15,800 -960 Descending Washington Center
05:16PM 38.1475 -76.6664 176° South 305 351 14,900 -900 Descending Washington Center
05:17PM 38.0725 -76.6600 183° South 299 344 14,100 -840 Descending Washington Center
05:18PM 37.9975 -76.6642 186° South 280 322 13,300 -840 Descending Washington Center
05:19PM 37.9264 -76.6736 181° South 273 314 12,500 -780 Descending Washington Center
05:20PM 37.8533 -76.6753 138° Southeast 268 308 11,800 -720 Descending Washington Center
05:21PM 37.7978 -76.6114 133° Southeast 284 327 11,200 -780 Descending Washington Center
05:22PM 37.7625 -76.5636 135° Southeast 287 330 10,600 -720 Descending Washington Center
05:23PM 37.7069 -76.4922 132° Southeast 289 333 10,000 -300 Descending Washington Center
05:24PM 37.6511 -76.4153 133° Southeast 278 320 10,000 -540 Level Washington Center
05:25PM 37.5994 -76.3442 137° Southeast 276 318 9,000 -1,140 Descending Washington Center
05:26PM 37.5394 -76.2728 133° Southeast 297 342 7,800 -1,140 Descending Washington Center
05:27PM 37.4856 -76.1989 136° Southeast 290 334 6,700 -1,080 Descending Washington Center
05:28PM 37.4253 -76.1253 137° Southeast 283 326 5,600 -840 Descending Washington Center
05:29PM 37.3650 -76.0544 133° Southeast 264 304 5,000 -300 Descending Washington Center
05:30PM 37.3175 -75.9914 158° South 250 288 5,000 -60 Level Washington Center
05:31PM 37.2592 -75.9625 190° South 224 258 4,900  Descending Washington Center
05:32PM 37.2028 -75.9753 184° South 192 221 5,000 -480 Climbing Washington Center
05:33PM 37.1442 -75.9800 201° Southwest 194 223 3,900 -1,020 Descending Washington Center
05:34PM 37.0961 -76.0033 221° Southwest 185 213 3,000 -480 Descending Washington Center
05:35PM 37.0606 -76.0422 221° Southwest 189 217 3,000  Level Washington Center